Česky Dansk Deutsch English Español Suomi Français Magyar Italiano Nederlands norsk Polski Português svenska Türkçe

 

Het Weer

Chelyabinsk-Balandino (Rusland)

16:30, 19 augustus 2016 (GMT)

NWNNE
WE
SWSSE
Home            
Chelyabinsk-Balandino Ekaterinburg Kostanay Ufa Perm'/Bolshoe Savino Orenburg / Tsentralny Aktjubinsk Omsk Samara Kazan' Hanty-Mansijsk Astana Uralsk Ulyanovsk Ust'- Kulom Aralskoe More Syktyvkar Surgut Karaganda Penza Kotlas Saratov / Tsentralny Nizhnevartovsk

Om een weerknop op uw website of weblog te plaatsen, copieer onderstaande code en plak die in uw pagina. In het eerste vakje staat HTML-code, in het tweede vakje UBB-code.


Add to Google

Details

Wind speed:1 bf, 1.9 kn, 1 m/s, 2.2 miles/h, 3.6 km/h
Wind direction:W, 280°
Visibility:Greater than 10000 m, 10 km, 32800 ft, 6.2 miles
Clouds:CAVOC
Temperature:16°C, 61°F
Dew-point:10°C, 50°F
Atmospheric pressure:1027 hPa, 770.3 mmHg, 30.33 inHg, 1.014 atm
Relative humidity:67.5 %
METAR:USCC 191630Z 28001MPS CAVOK 16/10 Q1027 R09/000060 NOSIG RMK QFE749

Snelkoppelingen

Actuele weersinformatie van de hele wereld. Voeg locaties toe met het plus (+) symbool. Deze snelkoppelingen kunnen worden toegevoegd aan Google.

Lid van de Technetium groep

website free tracking
StatCounter NetStat W3C Validator

13-11-2019 06:36:42
astro.technetium.be money.technetium.be phote.technetium.be tafeltennistafel.technetium.be www.ligfiets.net